Maple Grove, Minnesota
Current Conditions -  °F | °C
As of 5:53 AM on Friday 28 Nov 2014 (Local Time) from KMIC Reporting Station
Overcast Overcast  
Wind Chill:   Ceiling: 8000
Heat Index: 14°   Visibility: 10mi
Dew Point:   Wind: 7mph
Humidity: 77%   Direction: NA
Pressure: 30.04"   Gusts: NA
Location:  45.1°N, 93.44°W
Report Text: KMIC 281153Z AUTO VRB06KT 10SM OVC080 M10/M13 A3004 RMK AO2 SLP190 60003 70004 T11001133 11100 21133 56027
Loading
Personal Weather Stations






























Interactive Weather Map New forecast layout! Learn more

10-Day Weather Forecast

Advertisements
Track Severe Weather on mobile